createdAt,value
2023-01-30T00:01:59.553Z,98052.94
2023-01-30T00:04:26.297Z,98042.41
2023-01-30T00:06:53.012Z,98030.94
2023-01-30T00:09:19.650Z,98017.78
2023-01-30T00:11:46.860Z,98017.91
2023-01-30T00:14:13.659Z,98003.69
2023-01-30T00:16:40.429Z,98005.41
2023-01-30T00:19:07.236Z,98001.00
2023-01-30T00:21:34.007Z,97998.38
2023-01-30T00:24:01.089Z,97986.13
2023-01-30T00:26:27.806Z,97981.72
2023-01-30T00:28:54.476Z,97987.91
2023-01-30T00:31:21.156Z,97981.72
2023-01-30T00:33:47.832Z,97971.19
2023-01-30T00:36:14.868Z,97970.28
2023-01-30T00:38:41.547Z,97965.84
2023-01-30T00:41:08.633Z,97959.63
2023-01-30T00:43:54.001Z,97960.66
2023-01-30T00:46:50.019Z,97956.16
2023-01-30T00:49:16.831Z,97948.28
2023-01-30T00:51:43.537Z,97936.06
2023-01-30T00:54:10.234Z,97933.31
2023-01-30T00:56:36.873Z,97928.94
2023-01-30T00:59:03.585Z,97909.56
2023-01-30T01:01:30.321Z,97888.59
2023-01-30T01:03:57.001Z,97885.88
2023-01-30T01:06:23.741Z,97881.34
2023-01-30T01:08:50.450Z,97858.53
2023-01-30T01:11:24.579Z,97868.13
2023-01-30T01:13:57.423Z,97852.22
2023-01-30T01:16:24.994Z,97851.28
2023-01-30T01:18:51.746Z,97854.84
2023-01-30T01:21:20.282Z,97832.94
2023-01-30T01:23:56.027Z,97833.91
2023-01-30T01:26:23.313Z,97844.44
2023-01-30T01:28:54.062Z,97848.84
2023-01-30T01:31:20.839Z,97840.13
2023-01-30T01:33:47.587Z,97830.53
2023-01-30T01:36:29.380Z,97821.78
2023-01-30T01:39:01.751Z,97815.56
2023-01-30T01:41:28.408Z,97806.00
2023-01-30T01:44:12.443Z,97797.25
2023-01-30T01:46:39.045Z,97789.38
2023-01-30T01:49:27.947Z,97788.53
2023-01-30T01:52:09.506Z,97789.47
2023-01-30T01:54:48.501Z,97785.91
2023-01-30T01:57:28.785Z,97786.63
2023-01-30T02:00:05.766Z,97776.22
2023-01-30T02:02:33.986Z,97769.16
2023-01-30T02:05:03.561Z,97765.56
2023-01-30T02:07:37.271Z,97764.00
2023-01-30T02:10:05.315Z,97765.81
2023-01-30T02:12:32.934Z,97764.22
2023-01-30T02:15:00.876Z,97758.16
2023-01-30T02:17:27.594Z,97766.16
2023-01-30T02:20:16.107Z,97758.56
2023-01-30T02:23:03.713Z,97768.53
2023-01-30T02:25:52.675Z,97760.31
2023-01-30T02:28:22.395Z,97744.81
2023-01-30T02:31:16.173Z,97744.16
2023-01-30T02:34:11.001Z,97756.59
2023-01-30T02:36:51.799Z,97744.47
2023-01-30T02:39:49.159Z,97729.41
2023-01-30T02:42:43.473Z,97729.41
2023-01-30T02:45:25.008Z,97730.38
2023-01-30T02:48:11.865Z,97728.69
2023-01-30T02:51:01.987Z,97718.91
2023-01-30T02:53:33.873Z,97700.63
2023-01-30T02:56:00.972Z,97703.13
2023-01-30T02:58:35.837Z,97682.09
2023-01-30T03:01:08.401Z,97681.25
2023-01-30T03:03:49.824Z,97691.69
2023-01-30T03:06:47.188Z,97690.84
2023-01-30T03:09:25.690Z,97690.94
2023-01-30T03:12:43.300Z,97681.44
2023-01-30T03:15:20.456Z,97675.56
2023-01-30T03:17:48.114Z,97676.81
2023-01-30T03:20:17.073Z,97692.66
2023-01-30T03:22:43.730Z,97685.72
2023-01-30T03:25:14.113Z,97655.13
2023-01-30T03:27:40.967Z,97649.97
2023-01-30T03:30:08.413Z,97637.78
2023-01-30T03:32:35.065Z,97656.38
2023-01-30T03:35:01.726Z,97647.84
2023-01-30T03:37:28.773Z,97641.81
2023-01-30T03:39:55.444Z,97635.94
2023-01-30T03:42:22.351Z,97641.38
2023-01-30T03:44:49.056Z,97649.25
2023-01-30T03:47:15.700Z,97638.88
2023-01-30T03:49:42.363Z,97649.50
2023-01-30T03:52:09.009Z,97648.63
2023-01-30T03:54:35.665Z,97651.44
2023-01-30T03:57:02.351Z,97639.25
2023-01-30T03:59:29.049Z,97630.66
2023-01-30T04:01:55.748Z,97633.34
2023-01-30T04:04:23.111Z,97632.63
2023-01-30T04:06:49.788Z,97616.19
2023-01-30T04:09:16.475Z,97633.09
2023-01-30T04:11:43.156Z,97621.84
2023-01-30T04:14:09.823Z,97621.94
2023-01-30T04:16:36.730Z,97618.59
2023-01-30T04:19:03.560Z,97617.94
2023-01-30T04:21:30.211Z,97608.53
2023-01-30T04:23:56.838Z,97620.00
2023-01-30T04:26:23.525Z,97615.78
2023-01-30T04:28:50.255Z,97609.88
2023-01-30T04:31:16.989Z,97603.13
2023-01-30T04:33:43.829Z,97592.94
2023-01-30T04:36:11.180Z,97599.97
2023-01-30T04:38:38.674Z,97602.78
2023-01-30T04:41:05.826Z,97581.97
2023-01-30T04:43:33.010Z,97599.72
2023-01-30T04:45:59.765Z,97589.47
2023-01-30T04:48:26.693Z,97597.56
2023-01-30T04:50:55.414Z,97621.28
2023-01-30T04:53:22.472Z,97582.84
2023-01-30T04:55:49.857Z,97592.59
2023-01-30T04:58:17.429Z,97574.50
2023-01-30T05:00:44.097Z,97579.75
2023-01-30T05:03:11.033Z,97587.81
2023-01-30T05:05:37.946Z,97596.84
2023-01-30T05:08:05.013Z,97577.81
2023-01-30T05:10:31.671Z,97591.13
2023-01-30T05:13:02.345Z,97578.19
2023-01-30T05:15:29.062Z,97583.50
2023-01-30T05:17:55.713Z,97577.53
2023-01-30T05:20:22.404Z,97580.34
2023-01-30T05:22:49.052Z,97581.38
2023-01-30T05:25:15.924Z,97574.63
2023-01-30T05:27:42.892Z,97570.41
2023-01-30T05:30:10.332Z,97567.13
2023-01-30T05:32:36.981Z,97571.72
2023-01-30T05:35:03.806Z,97570.97
2023-01-30T05:37:31.023Z,97566.84
2023-01-30T05:39:57.674Z,97573.03
2023-01-30T05:42:24.404Z,97569.56
2023-01-30T05:44:51.167Z,97573.22
2023-01-30T05:47:17.815Z,97576.00
2023-01-30T05:49:44.483Z,97571.81
2023-01-30T05:52:11.141Z,97574.63
2023-01-30T05:54:37.897Z,97566.84
2023-01-30T05:57:04.546Z,97566.09
2023-01-30T05:59:31.247Z,97563.72
2023-01-30T06:01:57.923Z,97583.88
2023-01-30T06:04:24.699Z,97573.38
2023-01-30T06:06:51.427Z,97569.09
2023-01-30T06:09:18.217Z,97579.94
2023-01-30T06:11:44.903Z,97583.69
2023-01-30T06:14:11.567Z,97590.88
2023-01-30T06:16:38.329Z,97605.00
2023-01-30T06:19:05.089Z,97595.53
2023-01-30T06:21:31.778Z,97592.19
2023-01-30T06:23:58.656Z,97585.16
2023-01-30T06:26:25.587Z,97585.34
2023-01-30T06:28:52.309Z,97581.94
2023-01-30T06:31:19.269Z,97588.13
2023-01-30T06:33:45.979Z,97572.41
2023-01-30T06:36:13.041Z,97582.88
2023-01-30T06:38:39.818Z,97589.06
2023-01-30T06:41:06.853Z,97596.00
2023-01-30T06:43:33.521Z,97609.94
2023-01-30T06:46:00.470Z,97608.91
2023-01-30T06:48:27.509Z,97617.56
2023-01-30T06:50:54.251Z,97620.06
2023-01-30T06:53:22.323Z,97617.78
2023-01-30T06:55:48.999Z,97607.28
2023-01-30T06:58:15.889Z,97604.59
2023-01-30T07:00:43.564Z,97600.91
2023-01-30T07:03:15.328Z,97594.41
2023-01-30T07:05:43.773Z,97597.38
2023-01-30T07:08:11.293Z,97602.44
2023-01-30T07:10:38.711Z,97597.03
2023-01-30T07:13:05.759Z,97594.25
2023-01-30T07:15:32.717Z,97590.41
2023-01-30T07:17:59.699Z,97593.72
2023-01-30T07:20:26.963Z,97581.22
2023-01-30T07:22:55.132Z,97587.00
2023-01-30T07:25:24.280Z,97592.91
2023-01-30T07:28:00.844Z,97589.28
2023-01-30T07:30:29.782Z,97596.13
2023-01-30T07:32:59.807Z,97593.50
2023-01-30T07:35:29.216Z,97603.06
2023-01-30T07:37:55.946Z,97603.06
2023-01-30T07:40:23.563Z,97607.38
2023-01-30T07:43:15.550Z,97611.84
2023-01-30T07:45:44.513Z,97606.50
2023-01-30T07:48:13.390Z,97609.13
2023-01-30T07:50:40.422Z,97600.53
2023-01-30T07:53:09.637Z,97599.59
2023-01-30T07:55:36.426Z,97606.44
2023-01-30T07:58:03.758Z,97611.69
2023-01-30T08:00:30.918Z,97601.03
2023-01-30T08:02:57.948Z,97599.13
2023-01-30T08:05:25.004Z,97603.28
2023-01-30T08:07:51.718Z,97602.19
2023-01-30T08:10:18.919Z,97600.22
2023-01-30T08:12:45.793Z,97598.25
2023-01-30T08:15:12.538Z,97598.09
2023-01-30T08:17:39.307Z,97599.66
2023-01-30T08:20:06.699Z,97601.19
2023-01-30T08:22:33.352Z,97601.09
2023-01-30T08:25:00.557Z,97599.22
2023-01-30T08:27:27.327Z,97598.38
2023-01-30T08:29:54.028Z,97594.00
2023-01-30T08:32:20.716Z,97599.13
2023-01-30T08:34:47.418Z,97601.75
2023-01-30T08:37:14.179Z,97602.69
2023-01-30T08:39:40.876Z,97597.53
2023-01-30T08:42:07.612Z,97600.91
2023-01-30T08:44:34.275Z,97606.16
2023-01-30T08:47:00.962Z,97605.13
2023-01-30T08:49:27.608Z,97590.41
2023-01-30T08:51:54.492Z,97593.63
2023-01-30T08:54:21.220Z,97597.09
2023-01-30T08:56:47.972Z,97600.56
2023-01-30T08:59:14.819Z,97607.47
2023-01-30T09:01:41.531Z,97599.59
2023-01-30T09:04:08.273Z,97593.41
2023-01-30T09:06:35.001Z,97601.22
2023-01-30T09:09:01.943Z,97590.63
2023-01-30T09:11:28.638Z,97580.91
2023-01-30T09:13:55.336Z,97590.44
2023-01-30T09:16:22.069Z,97594.78
2023-01-30T09:18:48.988Z,97588.66
2023-01-30T09:21:15.747Z,97587.75
2023-01-30T09:23:42.449Z,97595.59
2023-01-30T09:26:09.145Z,97601.88
2023-01-30T09:28:36.175Z,97606.28
2023-01-30T09:31:03.545Z,97595.03
2023-01-30T09:33:30.468Z,97598.66
2023-01-30T09:35:57.225Z,97616.28
2023-01-30T09:38:23.958Z,97597.16
2023-01-30T09:40:59.813Z,97592.75
2023-01-30T09:43:26.423Z,97583.97
2023-01-30T09:46:20.885Z,97597.81
2023-01-30T09:49:07.441Z,97603.91
2023-01-30T09:51:37.009Z,97582.94
2023-01-30T09:54:22.331Z,97586.44
2023-01-30T09:57:20.968Z,97584.63
2023-01-30T10:00:15.552Z,97588.94
2023-01-30T10:03:08.487Z,97568.53
2023-01-30T10:05:54.724Z,97562.16
2023-01-30T10:08:48.460Z,97552.34
2023-01-30T10:11:44.069Z,97572.19
2023-01-30T10:14:44.079Z,97576.22
2023-01-30T10:17:32.445Z,97570.78
2023-01-30T10:20:26.700Z,97575.00
2023-01-30T10:23:18.656Z,97580.91
2023-01-30T10:25:58.897Z,97582.38
2023-01-30T10:28:38.615Z,97572.66
2023-01-30T10:31:15.296Z,97571.72
2023-01-30T10:34:00.456Z,97576.88
2023-01-30T10:37:00.765Z,97573.22
2023-01-30T10:39:55.878Z,97576.59
2023-01-30T10:42:40.571Z,97569.66
2023-01-30T10:45:20.552Z,97569.66
2023-01-30T10:47:59.205Z,97577.59
2023-01-30T10:50:50.064Z,97571.53
2023-01-30T10:53:50.380Z,97571.53
2023-01-30T10:56:26.047Z,97576.78
2023-01-30T10:59:07.263Z,97575.09
2023-01-30T11:01:44.115Z,97578.66
2023-01-30T11:04:34.088Z,97580.34
2023-01-30T11:07:02.355Z,97587.25
2023-01-30T11:09:41.894Z,97585.41
2023-01-30T11:12:08.711Z,97587.84
2023-01-30T11:15:04.056Z,97599.06
2023-01-30T11:17:42.938Z,97591.97
2023-01-30T11:20:19.782Z,97591.78
2023-01-30T11:23:05.795Z,97594.94
2023-01-30T11:25:46.873Z,97592.13
2023-01-30T11:28:17.435Z,97580.59
2023-01-30T11:30:49.277Z,97596.16
2023-01-30T11:33:18.125Z,97582.00
2023-01-30T11:35:56.299Z,97580.13
2023-01-30T11:38:29.118Z,97577.41
2023-01-30T11:41:22.795Z,97580.88
2023-01-30T11:43:49.470Z,97576.56
2023-01-30T11:46:20.993Z,97578.44
2023-01-30T11:49:32.070Z,97578.50
2023-01-30T11:51:44.729Z,97583.75
2023-01-30T11:54:18.780Z,97579.28
2023-01-30T11:56:58.212Z,97590.44
2023-01-30T11:59:26.740Z,97594.84
2023-01-30T12:02:01.785Z,97602.25
2023-01-30T12:04:28.863Z,97597.56
2023-01-30T12:07:08.077Z,97594.75
2023-01-30T12:09:38.660Z,97597.75
2023-01-30T12:12:37.693Z,97602.47
2023-01-30T12:15:24.857Z,97596.56
2023-01-30T12:18:29.012Z,97604.44
2023-01-30T12:21:05.127Z,97593.00
2023-01-30T12:23:40.889Z,97591.03
2023-01-30T12:26:20.465Z,97580.34
2023-01-30T12:28:52.746Z,97585.41
2023-01-30T12:31:24.859Z,97591.31
2023-01-30T12:33:51.588Z,97591.19
2023-01-30T12:36:26.912Z,97591.00
2023-01-30T12:39:05.997Z,97596.19
2023-01-30T12:41:38.693Z,97596.84
2023-01-30T12:44:29.483Z,97599.28
2023-01-30T12:47:17.768Z,97592.22
2023-01-30T12:49:47.517Z,97592.13
2023-01-30T12:52:41.776Z,97596.34
2023-01-30T12:55:46.016Z,97609.28
2023-01-30T12:58:20.390Z,97594.19
2023-01-30T13:01:06.063Z,97605.44
2023-01-30T13:03:52.090Z,97601.75
2023-01-30T13:06:37.380Z,97628.66
2023-01-30T13:10:04.361Z,97620.53
2023-01-30T13:12:43.457Z,97635.03
2023-01-30T13:15:23.348Z,97631.50
2023-01-30T13:18:02.307Z,97622.47
2023-01-30T13:20:38.090Z,97618.91
2023-01-30T13:23:10.413Z,97631.31
2023-01-30T13:25:46.301Z,97634.84
2023-01-30T13:28:18.105Z,97633.16
2023-01-30T13:30:48.304Z,97641.03
2023-01-30T13:33:40.279Z,97652.50
2023-01-30T13:36:24.788Z,97666.53
2023-01-30T13:39:06.395Z,97665.81
2023-01-30T13:41:37.516Z,97686.06
2023-01-30T13:44:34.929Z,97687.97
2023-01-30T13:47:40.268Z,97700.31
2023-01-30T13:50:46.006Z,97698.72
2023-01-30T13:53:31.179Z,97702.38
2023-01-30T13:56:39.662Z,97702.59
2023-01-30T13:59:26.991Z,97716.63
2023-01-30T14:01:59.500Z,97718.34
2023-01-30T14:04:41.366Z,97748.13
2023-01-30T14:07:25.358Z,97766.50
2023-01-30T14:10:13.926Z,97783.38
2023-01-30T14:12:44.903Z,97760.03
2023-01-30T14:15:19.034Z,97761.91
2023-01-30T14:18:02.459Z,97783.91
2023-01-30T14:20:32.508Z,97778.84
2023-01-30T14:23:06.574Z,97771.06
2023-01-30T14:25:42.951Z,97789.56
2023-01-30T14:28:09.557Z,97791.22
2023-01-30T14:30:45.375Z,97794.81
2023-01-30T14:33:21.202Z,97806.13
2023-01-30T14:36:08.705Z,97813.19
2023-01-30T14:38:37.748Z,97822.72
2023-01-30T14:41:04.352Z,97828.81
2023-01-30T14:43:43.333Z,97832.28
2023-01-30T14:46:29.992Z,97826.09
2023-01-30T14:49:04.433Z,97831.34
2023-01-30T14:51:40.475Z,97847.84
2023-01-30T14:54:23.459Z,97844.38
2023-01-30T14:57:04.148Z,97861.66
2023-01-30T14:59:33.407Z,97872.06
2023-01-30T15:02:08.375Z,97868.41
2023-01-30T15:05:03.672Z,97874.44
2023-01-30T15:07:40.883Z,97890.06
2023-01-30T15:10:24.046Z,97892.63
2023-01-30T15:13:15.223Z,97903.97
2023-01-30T15:16:28.420Z,97914.47
2023-01-30T15:19:23.628Z,97922.34
2023-01-30T15:22:24.470Z,97919.78
2023-01-30T15:25:10.879Z,97924.97
2023-01-30T15:28:12.275Z,97950.22
2023-01-30T15:31:03.075Z,97955.38
2023-01-30T15:33:31.747Z,97961.22
2023-01-30T15:35:59.520Z,97970.50
2023-01-30T15:38:31.796Z,97978.13
2023-01-30T15:41:02.942Z,97990.06
2023-01-30T15:43:41.673Z,97998.59
2023-01-30T15:46:24.552Z,98016.06
2023-01-30T15:49:09.602Z,98012.41
2023-01-30T15:51:36.358Z,98018.50
2023-01-30T15:54:10.998Z,98029.78
2023-01-30T15:56:40.044Z,98028.09
2023-01-30T15:59:08.430Z,98049.94
2023-01-30T16:01:35.202Z,98041.91
2023-01-30T16:04:07.966Z,98039.34
2023-01-30T16:06:37.151Z,98060.34
2023-01-30T16:09:21.778Z,98066.38
2023-01-30T16:11:48.533Z,98088.25
2023-01-30T16:14:20.601Z,98081.22
2023-01-30T16:16:50.120Z,98094.34
2023-01-30T16:19:41.547Z,98113.56
2023-01-30T16:22:19.572Z,98119.78
2023-01-30T16:24:50.873Z,98127.59
2023-01-30T16:27:29.739Z,98132.75
2023-01-30T16:29:59.390Z,98134.53
2023-01-30T16:32:31.868Z,98141.47
2023-01-30T16:35:27.917Z,98149.19
2023-01-30T16:37:57.076Z,98182.31
2023-01-30T16:40:30.949Z,98172.75
2023-01-30T16:43:16.893Z,98189.28
2023-01-30T16:45:52.903Z,98185.81
2023-01-30T16:48:19.715Z,98193.59
2023-01-30T16:50:48.357Z,98211.13
2023-01-30T16:53:24.384Z,98222.50
2023-01-30T16:55:58.380Z,98222.41
2023-01-30T16:58:32.350Z,98245.06
2023-01-30T17:01:05.093Z,98242.44
2023-01-30T17:03:43.521Z,98247.00
2023-01-30T17:06:23.214Z,98270.81
2023-01-30T17:08:55.396Z,98270.16
2023-01-30T17:11:39.604Z,98273.94
2023-01-30T17:14:15.070Z,98288.91
2023-01-30T17:16:43.154Z,98293.50
2023-01-30T17:19:09.989Z,98306.72
2023-01-30T17:21:45.295Z,98294.69
2023-01-30T17:24:16.529Z,98305.19
2023-01-30T17:26:43.823Z,98313.06
2023-01-30T17:29:23.324Z,98328.72
2023-01-30T17:31:56.978Z,98340.19
2023-01-30T17:34:24.546Z,98355.09
2023-01-30T17:36:53.555Z,98339.41
2023-01-30T17:39:22.517Z,98333.28
2023-01-30T17:41:49.829Z,98354.41
2023-01-30T17:44:16.559Z,98347.53
2023-01-30T17:46:49.918Z,98358.97
2023-01-30T17:49:21.860Z,98362.59
2023-01-30T17:51:49.547Z,98358.50
2023-01-30T17:54:20.088Z,98368.31
2023-01-30T17:56:56.421Z,98368.59
2023-01-30T17:59:23.089Z,98383.50
2023-01-30T18:01:51.558Z,98390.78
2023-01-30T18:04:19.314Z,98389.06
2023-01-30T18:06:50.577Z,98399.75
2023-01-30T18:09:20.690Z,98405.16
2023-01-30T18:11:48.883Z,98410.53
2023-01-30T18:14:16.696Z,98419.31
2023-01-30T18:16:44.240Z,98412.38
2023-01-30T18:19:16.132Z,98422.13
2023-01-30T18:21:45.209Z,98428.38
2023-01-30T18:24:13.199Z,98436.09
2023-01-30T18:26:40.566Z,98439.56
2023-01-30T18:29:09.798Z,98447.44
2023-01-30T18:31:38.256Z,98449.97
2023-01-30T18:34:07.029Z,98447.34
2023-01-30T18:36:35.259Z,98449.13
2023-01-30T18:39:01.959Z,98453.53
2023-01-30T18:41:29.436Z,98475.53
2023-01-30T18:44:01.712Z,98468.72
2023-01-30T18:46:29.557Z,98482.78
2023-01-30T18:48:57.285Z,98482.94
2023-01-30T18:51:29.943Z,98489.31
2023-01-30T18:53:57.499Z,98500.88
2023-01-30T18:56:25.605Z,98511.75
2023-01-30T18:58:53.753Z,98516.28
2023-01-30T19:01:23.262Z,98524.34
2023-01-30T19:03:50.000Z,98542.06
2023-01-30T19:06:18.921Z,98538.75
2023-01-30T19:08:45.932Z,98546.75
2023-01-30T19:11:33.480Z,98559.94
2023-01-30T19:14:00.681Z,98564.31
2023-01-30T19:16:29.337Z,98566.09
2023-01-30T19:18:56.857Z,98575.81
2023-01-30T19:21:24.681Z,98580.25
2023-01-30T19:23:51.786Z,98587.50
2023-01-30T19:26:20.525Z,98590.28
2023-01-30T19:28:47.816Z,98590.44
2023-01-30T19:31:17.457Z,98587.09
2023-01-30T19:33:45.803Z,98590.84
2023-01-30T19:36:13.801Z,98607.56
2023-01-30T19:38:41.276Z,98610.31
2023-01-30T19:41:13.911Z,98613.06
2023-01-30T19:43:41.414Z,98601.91
2023-01-30T19:46:10.937Z,98614.22
2023-01-30T19:48:42.585Z,98621.28
2023-01-30T19:51:21.062Z,98625.69
2023-01-30T19:53:55.265Z,98644.16
2023-01-30T19:56:24.964Z,98639.00
2023-01-30T19:58:53.253Z,98647.63
2023-01-30T20:01:22.117Z,98660.69
2023-01-30T20:03:49.568Z,98669.41
2023-01-30T20:06:26.189Z,98674.72
2023-01-30T20:09:00.048Z,98673.06
2023-01-30T20:11:27.253Z,98665.19
2023-01-30T20:13:54.570Z,98678.34
2023-01-30T20:16:25.351Z,98674.03
2023-01-30T20:19:01.189Z,98685.44
2023-01-30T20:21:29.406Z,98695.09
2023-01-30T20:23:57.173Z,98707.38
2023-01-30T20:26:26.881Z,98713.59
2023-01-30T20:28:57.545Z,98711.91
2023-01-30T20:31:26.928Z,98719.84
2023-01-30T20:33:57.591Z,98725.06
2023-01-30T20:36:27.205Z,98736.44
2023-01-30T20:38:55.693Z,98749.50
2023-01-30T20:41:24.419Z,98743.41
2023-01-30T20:43:53.720Z,98747.75
2023-01-30T20:46:23.321Z,98759.06
2023-01-30T20:48:52.839Z,98770.41
2023-01-30T20:51:32.243Z,98770.34
2023-01-30T20:54:01.419Z,98779.06
2023-01-30T20:56:33.275Z,98767.75
2023-01-30T20:59:02.325Z,98773.81
2023-01-30T21:01:29.134Z,98784.31
2023-01-30T21:03:56.154Z,98792.16
2023-01-30T21:06:41.886Z,98804.34
2023-01-30T21:09:17.648Z,98812.19
2023-01-30T21:11:44.921Z,98817.34
2023-01-30T21:14:12.201Z,98826.03
2023-01-30T21:16:39.667Z,98826.88
2023-01-30T21:19:08.409Z,98835.56
2023-01-30T21:21:41.103Z,98846.06
2023-01-30T21:24:11.822Z,98847.72
2023-01-30T21:26:41.035Z,98844.22
2023-01-30T21:29:08.522Z,98852.22
2023-01-30T21:31:37.179Z,98868.81
2023-01-30T21:34:04.230Z,98867.16
2023-01-30T21:36:31.131Z,98869.88
2023-01-30T21:39:16.343Z,98877.84
2023-01-30T21:41:51.170Z,98884.00
2023-01-30T21:44:19.904Z,98873.56
2023-01-30T21:46:48.616Z,98893.75
2023-01-30T21:49:16.723Z,98897.34
2023-01-30T21:51:45.625Z,98906.91
2023-01-30T21:54:12.681Z,98915.69
2023-01-30T21:56:40.155Z,98919.22
2023-01-30T21:59:07.776Z,98919.22
2023-01-30T22:01:36.624Z,98935.84
2023-01-30T22:04:05.790Z,98923.72
2023-01-30T22:06:32.943Z,98943.84
2023-01-30T22:09:01.011Z,98950.88
2023-01-30T22:11:30.843Z,98963.16
2023-01-30T22:13:58.124Z,98950.16
2023-01-30T22:16:27.982Z,98968.50
2023-01-30T22:18:56.145Z,98987.78
2023-01-30T22:21:26.464Z,98980.81
2023-01-30T22:23:54.890Z,98990.50
2023-01-30T22:26:23.979Z,99000.09
2023-01-30T22:28:56.216Z,99007.13
2023-01-30T22:31:24.072Z,99001.88
2023-01-30T22:33:54.846Z,99000.19
2023-01-30T22:36:26.840Z,99011.56
2023-01-30T22:38:54.271Z,99019.47
2023-01-30T22:41:26.701Z,99015.19
2023-01-30T22:43:58.832Z,99034.53
2023-01-30T22:46:31.621Z,99018.00
2023-01-30T22:49:00.190Z,99040.91
2023-01-30T22:51:39.774Z,99039.28
2023-01-30T22:54:09.731Z,99041.19
2023-01-30T22:56:41.696Z,99046.63
2023-01-30T22:59:09.180Z,99044.13
2023-01-30T23:01:41.603Z,99051.19
2023-01-30T23:04:16.870Z,99059.09
2023-01-30T23:06:44.410Z,99077.50
2023-01-30T23:09:19.166Z,99067.06
2023-01-30T23:12:24.071Z,99078.59
2023-01-30T23:14:50.783Z,99083.00
2023-01-30T23:17:36.833Z,99089.25
2023-01-30T23:20:03.821Z,99091.97
2023-01-30T23:22:30.460Z,99093.81
2023-01-30T23:24:57.122Z,99086.97
2023-01-30T23:27:24.636Z,99105.28
2023-01-30T23:29:51.343Z,99108.88
2023-01-30T23:32:21.016Z,99118.56
2023-01-30T23:34:48.488Z,99117.81
2023-01-30T23:37:15.878Z,99116.09
2023-01-30T23:39:42.520Z,99122.25
2023-01-30T23:42:09.391Z,99122.28
2023-01-30T23:44:36.421Z,99126.72
2023-01-30T23:47:03.170Z,99132.06
2023-01-30T23:49:29.806Z,99135.56
2023-01-30T23:51:56.441Z,99134.75
2023-01-30T23:54:23.076Z,99134.81
2023-01-30T23:56:49.815Z,99126.13
2023-01-30T23:59:16.451Z,99142.78
